createdAt,value
2023-11-07T00:01:29.256Z,8.70
2023-11-07T00:03:56.859Z,8.60
2023-11-07T00:06:24.331Z,8.60
2023-11-07T00:08:52.508Z,8.70
2023-11-07T00:11:19.968Z,8.70
2023-11-07T00:13:49.463Z,8.70
2023-11-07T00:16:16.915Z,8.70
2023-11-07T00:18:44.009Z,8.60
2023-11-07T00:21:11.056Z,8.60
2023-11-07T00:23:39.085Z,8.60
2023-11-07T00:26:06.433Z,8.50
2023-11-07T00:28:33.256Z,8.50
2023-11-07T00:31:00.119Z,8.40
2023-11-07T00:33:27.066Z,8.40
2023-11-07T00:35:54.147Z,8.40
2023-11-07T00:38:20.994Z,8.40
2023-11-07T00:40:48.826Z,8.30
2023-11-07T00:43:15.743Z,8.30
2023-11-07T00:45:42.678Z,8.20
2023-11-07T00:48:09.823Z,8.20
2023-11-07T00:50:37.658Z,8.20
2023-11-07T00:53:07.247Z,8.10
2023-11-07T00:55:34.068Z,8.10
2023-11-07T00:58:00.901Z,8.00
2023-11-07T01:00:28.682Z,8.00
2023-11-07T01:02:55.722Z,7.90
2023-11-07T01:05:23.058Z,7.70
2023-11-07T01:07:49.960Z,7.80
2023-11-07T01:10:16.974Z,7.70
2023-11-07T01:12:43.792Z,7.80
2023-11-07T01:15:10.957Z,7.80
2023-11-07T01:17:38.320Z,7.90
2023-11-07T01:20:07.759Z,7.90
2023-11-07T01:22:34.907Z,7.90
2023-11-07T01:25:01.740Z,7.90
2023-11-07T01:27:28.575Z,7.80
2023-11-07T01:29:55.429Z,7.80
2023-11-07T01:32:22.410Z,7.70
2023-11-07T01:34:49.298Z,7.70
2023-11-07T01:37:16.146Z,7.70
2023-11-07T01:39:43.067Z,7.70
2023-11-07T01:42:09.920Z,7.70
2023-11-07T01:44:38.400Z,7.70
2023-11-07T01:47:05.520Z,7.70
2023-11-07T01:49:32.495Z,7.70
2023-11-07T01:52:00.355Z,7.50
2023-11-07T01:54:28.472Z,7.70
2023-11-07T01:56:55.580Z,7.70
2023-11-07T01:59:23.672Z,7.80
2023-11-07T02:01:51.922Z,7.80
2023-11-07T02:04:19.005Z,7.80
2023-11-07T02:06:46.003Z,7.90
2023-11-07T02:09:12.928Z,7.90
2023-11-07T02:11:39.798Z,7.90
2023-11-07T02:14:06.959Z,8.00
2023-11-07T02:16:33.737Z,8.00
2023-11-07T02:19:00.728Z,8.20
2023-11-07T02:21:29.851Z,8.30
2023-11-07T02:23:56.732Z,8.30
2023-11-07T02:26:23.585Z,8.40
2023-11-07T02:28:51.581Z,8.40
2023-11-07T02:31:18.807Z,8.50
2023-11-07T02:33:45.931Z,8.50
2023-11-07T02:36:12.903Z,8.50
2023-11-07T02:38:39.779Z,8.50
2023-11-07T02:41:06.802Z,8.60
2023-11-07T02:43:33.876Z,8.60
2023-11-07T02:46:00.800Z,8.60
2023-11-07T02:48:27.796Z,8.60
2023-11-07T02:50:54.748Z,8.70
2023-11-07T02:53:21.636Z,8.70
2023-11-07T02:55:48.471Z,8.70
2023-11-07T02:58:16.318Z,8.70
2023-11-07T03:00:45.164Z,8.70
2023-11-07T03:03:12.276Z,8.60
2023-11-07T03:05:40.138Z,8.60
2023-11-07T03:08:08.592Z,8.60
2023-11-07T03:10:36.127Z,8.60
2023-11-07T03:13:03.899Z,8.60
2023-11-07T03:15:31.679Z,8.60
2023-11-07T03:17:58.611Z,8.70
2023-11-07T03:20:25.479Z,8.70
2023-11-07T03:22:52.380Z,8.50
2023-11-07T03:25:19.536Z,8.60
2023-11-07T03:27:46.368Z,8.60
2023-11-07T03:30:13.456Z,8.60
2023-11-07T03:32:40.399Z,8.60
2023-11-07T03:35:07.771Z,8.60
2023-11-07T03:37:34.576Z,8.60
2023-11-07T03:40:01.385Z,8.60
2023-11-07T03:42:28.269Z,8.60
2023-11-07T03:44:55.114Z,8.60
2023-11-07T03:47:23.228Z,8.60
2023-11-07T03:49:50.050Z,8.50
2023-11-07T03:52:17.426Z,8.50
2023-11-07T03:54:44.358Z,8.50
2023-11-07T03:57:11.249Z,8.40
2023-11-07T03:59:38.230Z,8.40
2023-11-07T04:02:06.297Z,8.40
2023-11-07T04:04:33.161Z,8.40
2023-11-07T04:07:00.235Z,8.50
2023-11-07T04:09:27.080Z,8.50
2023-11-07T04:11:53.915Z,8.50
2023-11-07T04:14:22.352Z,8.50
2023-11-07T04:16:49.821Z,8.50
2023-11-07T04:19:16.678Z,8.50
2023-11-07T04:21:44.116Z,8.50
2023-11-07T04:24:11.555Z,8.40
2023-11-07T04:26:38.450Z,8.40
2023-11-07T04:29:05.521Z,8.40
2023-11-07T04:31:32.353Z,8.40
2023-11-07T04:33:59.251Z,8.40
2023-11-07T04:36:26.625Z,8.40
2023-11-07T04:38:53.627Z,8.40
2023-11-07T04:41:21.332Z,8.40
2023-11-07T04:43:48.174Z,8.40
2023-11-07T04:46:15.119Z,8.40
2023-11-07T04:48:42.148Z,8.50
2023-11-07T04:51:09.027Z,8.50
2023-11-07T04:53:37.427Z,8.40
2023-11-07T04:56:05.956Z,8.50
2023-11-07T04:58:33.736Z,8.40
2023-11-07T05:01:00.605Z,8.40
2023-11-07T05:03:35.652Z,8.40
2023-11-07T05:06:06.435Z,8.30
2023-11-07T05:08:33.348Z,8.50
2023-11-07T05:11:00.388Z,8.40
2023-11-07T05:13:29.010Z,8.40
2023-11-07T05:15:55.932Z,8.40
2023-11-07T05:18:23.013Z,8.40
2023-11-07T05:20:53.021Z,8.40
2023-11-07T05:23:20.521Z,8.40
2023-11-07T05:25:47.454Z,8.40
2023-11-07T05:28:14.285Z,8.40
2023-11-07T05:30:41.121Z,8.40
2023-11-07T05:33:08.097Z,8.50
2023-11-07T05:35:35.085Z,8.50
2023-11-07T05:38:01.900Z,8.50
2023-11-07T05:40:28.790Z,8.50
2023-11-07T05:42:55.608Z,8.50
2023-11-07T05:45:22.955Z,8.50
2023-11-07T05:47:50.212Z,8.40
2023-11-07T05:50:17.185Z,8.50
2023-11-07T05:52:45.415Z,8.50
2023-11-07T05:55:13.230Z,8.50
2023-11-07T05:57:40.480Z,8.50
2023-11-07T06:00:09.426Z,8.50
2023-11-07T06:02:37.261Z,8.50
2023-11-07T06:05:05.289Z,8.60
2023-11-07T06:07:32.105Z,8.60
2023-11-07T06:09:59.344Z,8.60
2023-11-07T06:12:26.161Z,8.60
2023-11-07T06:14:53.111Z,8.60
2023-11-07T06:17:20.116Z,8.60
2023-11-07T06:19:48.325Z,8.60
2023-11-07T06:22:16.057Z,8.60
2023-11-07T06:24:43.321Z,8.60
2023-11-07T06:27:12.529Z,8.60
2023-11-07T06:29:47.956Z,8.70
2023-11-07T06:32:15.239Z,8.60
2023-11-07T06:34:42.402Z,8.70
2023-11-07T06:37:11.022Z,8.60
2023-11-07T06:39:38.158Z,8.60
2023-11-07T06:42:05.689Z,8.60
2023-11-07T06:44:32.557Z,8.70
2023-11-07T06:46:59.584Z,8.60
2023-11-07T06:49:26.737Z,8.60
2023-11-07T06:51:53.815Z,8.60
2023-11-07T06:54:20.680Z,8.60
2023-11-07T06:56:48.410Z,8.60
2023-11-07T06:59:15.366Z,8.60
2023-11-07T07:01:42.238Z,8.60
2023-11-07T07:04:11.221Z,8.60
2023-11-07T07:06:38.477Z,8.50
2023-11-07T07:09:09.699Z,8.60
2023-11-07T07:11:37.601Z,8.60
2023-11-07T07:14:04.857Z,8.60
2023-11-07T07:16:33.453Z,8.60
2023-11-07T07:19:00.492Z,8.60
2023-11-07T07:21:27.412Z,8.60
2023-11-07T07:23:54.441Z,8.70
2023-11-07T07:26:23.666Z,8.70
2023-11-07T07:28:53.539Z,8.80
2023-11-07T07:31:28.417Z,8.70
2023-11-07T07:33:57.696Z,8.80
2023-11-07T07:36:24.755Z,8.90
2023-11-07T07:38:53.708Z,9.00
2023-11-07T07:41:21.881Z,9.00
2023-11-07T07:43:48.809Z,8.90
2023-11-07T07:46:16.536Z,9.00
2023-11-07T07:48:46.763Z,9.00
2023-11-07T07:51:15.103Z,9.00
2023-11-07T07:53:44.403Z,9.00
2023-11-07T07:56:14.999Z,9.00
2023-11-07T07:58:43.776Z,9.10
2023-11-07T08:01:11.173Z,9.10
2023-11-07T08:03:39.290Z,9.10
2023-11-07T08:06:06.851Z,9.10
2023-11-07T08:08:33.894Z,9.20
2023-11-07T08:11:00.715Z,9.20
2023-11-07T08:13:27.585Z,9.20
2023-11-07T08:15:54.558Z,9.20
2023-11-07T08:18:23.159Z,9.30
2023-11-07T08:20:51.591Z,9.30
2023-11-07T08:23:19.195Z,9.40
2023-11-07T08:25:46.048Z,9.50
2023-11-07T08:28:14.201Z,9.60
2023-11-07T08:30:45.326Z,9.60
2023-11-07T08:33:14.094Z,9.40
2023-11-07T08:35:41.211Z,9.90
2023-11-07T08:38:08.156Z,10.00
2023-11-07T08:40:36.535Z,10.10
2023-11-07T08:43:04.581Z,10.20
2023-11-07T08:45:33.685Z,10.30
2023-11-07T08:48:00.904Z,10.40
2023-11-07T08:50:27.943Z,10.40
2023-11-07T08:52:54.834Z,10.40
2023-11-07T08:55:22.353Z,10.50
2023-11-07T08:57:51.026Z,10.70
2023-11-07T09:00:24.600Z,10.90
2023-11-07T09:02:53.702Z,10.90
2023-11-07T09:05:22.273Z,11.00
2023-11-07T09:07:49.429Z,11.10
2023-11-07T09:10:16.359Z,11.00
2023-11-07T09:12:43.812Z,10.80
2023-11-07T09:15:12.992Z,10.80
2023-11-07T09:17:40.969Z,10.90
2023-11-07T09:20:16.522Z,10.90
2023-11-07T09:22:44.044Z,11.00
2023-11-07T09:25:13.003Z,11.00
2023-11-07T09:27:40.404Z,11.20
2023-11-07T09:30:12.617Z,11.40
2023-11-07T09:32:41.213Z,11.30
2023-11-07T09:35:09.066Z,11.30
2023-11-07T09:37:40.828Z,11.50
2023-11-07T09:40:10.643Z,11.70
2023-11-07T09:42:40.964Z,11.60
2023-11-07T09:45:15.939Z,11.70
2023-11-07T09:47:50.262Z,11.70
2023-11-07T09:50:22.413Z,11.90
2023-11-07T09:52:51.113Z,12.40
2023-11-07T09:55:18.398Z,12.60
2023-11-07T09:58:15.743Z,12.50
2023-11-07T10:00:45.801Z,12.20
2023-11-07T10:03:14.940Z,11.90
2023-11-07T10:05:42.273Z,11.80
2023-11-07T10:08:09.197Z,11.70
2023-11-07T10:10:36.236Z,11.70
2023-11-07T10:13:11.748Z,11.30
2023-11-07T10:15:40.018Z,11.10
2023-11-07T10:18:10.438Z,11.10
2023-11-07T10:20:51.866Z,11.10
2023-11-07T10:23:19.484Z,11.10
2023-11-07T10:25:52.528Z,11.10
2023-11-07T10:28:22.959Z,11.10
2023-11-07T10:30:50.929Z,11.20
2023-11-07T10:33:29.931Z,11.20
2023-11-07T10:36:01.373Z,11.20
2023-11-07T10:38:32.408Z,11.20
2023-11-07T10:41:00.282Z,11.30
2023-11-07T10:43:34.822Z,11.40
2023-11-07T10:46:03.938Z,11.50
2023-11-07T10:48:32.420Z,11.40
2023-11-07T10:51:05.273Z,11.50
2023-11-07T10:53:37.789Z,11.40
2023-11-07T10:56:27.541Z,11.30
2023-11-07T10:59:07.242Z,11.40
2023-11-07T11:01:37.435Z,12.20
2023-11-07T11:04:09.991Z,13.90
2023-11-07T11:06:38.124Z,15.40
2023-11-07T11:09:12.286Z,15.60
2023-11-07T11:11:42.375Z,14.90
2023-11-07T11:14:10.019Z,14.20
2023-11-07T11:16:39.816Z,13.60
2023-11-07T11:19:29.890Z,13.50
2023-11-07T11:22:26.650Z,13.10
2023-11-07T11:25:19.175Z,12.60
2023-11-07T11:27:52.233Z,12.20
2023-11-07T11:30:26.757Z,12.10
2023-11-07T11:33:06.673Z,12.00
2023-11-07T11:35:35.573Z,11.90
2023-11-07T11:38:22.397Z,11.80
2023-11-07T11:41:00.756Z,11.70
2023-11-07T11:43:29.369Z,11.70
2023-11-07T11:46:00.003Z,11.70
2023-11-07T11:48:51.011Z,11.80
2023-11-07T11:51:44.343Z,11.80
2023-11-07T11:54:12.472Z,12.00
2023-11-07T11:56:51.788Z,12.10
2023-11-07T11:59:19.413Z,12.30
2023-11-07T12:01:57.577Z,12.40
2023-11-07T12:04:38.419Z,12.30
2023-11-07T12:07:11.490Z,12.30
2023-11-07T12:09:39.835Z,12.10
2023-11-07T12:12:08.787Z,12.10
2023-11-07T12:14:58.400Z,12.00
2023-11-07T12:17:29.518Z,12.10
2023-11-07T12:20:08.494Z,12.00
2023-11-07T12:22:37.203Z,11.70
2023-11-07T12:25:22.056Z,11.20
2023-11-07T12:27:58.361Z,11.00
2023-11-07T12:30:25.556Z,10.80
2023-11-07T12:33:02.972Z,10.70
2023-11-07T12:35:31.118Z,10.60
2023-11-07T12:38:05.258Z,10.50
2023-11-07T12:40:32.642Z,10.50
2023-11-07T12:43:00.622Z,10.40
2023-11-07T12:45:35.355Z,10.40
2023-11-07T12:48:07.834Z,10.40
2023-11-07T12:50:37.523Z,10.40
2023-11-07T12:53:08.215Z,10.50
2023-11-07T12:55:39.092Z,10.80
2023-11-07T12:58:08.225Z,11.10
2023-11-07T13:00:57.713Z,11.20
2023-11-07T13:03:26.553Z,11.20
2023-11-07T13:06:01.368Z,11.20
2023-11-07T13:08:50.818Z,11.00
2023-11-07T13:11:22.606Z,10.90
2023-11-07T13:13:51.695Z,10.90
2023-11-07T13:16:19.951Z,10.80
2023-11-07T13:18:58.893Z,10.70
2023-11-07T13:21:26.186Z,10.80
2023-11-07T13:23:53.256Z,11.00
2023-11-07T13:26:20.584Z,11.30
2023-11-07T13:28:47.538Z,11.50
2023-11-07T13:31:15.222Z,12.40
2023-11-07T13:33:44.245Z,13.50
2023-11-07T13:36:13.280Z,14.20
2023-11-07T13:38:40.142Z,14.50
2023-11-07T13:41:07.927Z,14.60
2023-11-07T13:43:35.761Z,14.40
2023-11-07T13:46:02.616Z,14.40
2023-11-07T13:48:32.450Z,14.10
2023-11-07T13:50:59.484Z,13.50
2023-11-07T13:53:26.648Z,12.70
2023-11-07T13:55:54.197Z,12.30
2023-11-07T13:58:21.022Z,12.00
2023-11-07T14:00:47.851Z,11.60
2023-11-07T14:03:15.314Z,11.40
2023-11-07T14:05:42.310Z,11.20
2023-11-07T14:08:09.613Z,11.10
2023-11-07T14:10:38.244Z,11.10
2023-11-07T14:13:05.206Z,11.20
2023-11-07T14:15:36.151Z,11.20
2023-11-07T14:18:13.207Z,11.10
2023-11-07T14:20:50.947Z,11.20
2023-11-07T14:23:17.907Z,11.10
2023-11-07T14:25:45.935Z,11.10
2023-11-07T14:28:13.966Z,11.00
2023-11-07T14:30:50.575Z,10.90
2023-11-07T14:33:19.378Z,10.80
2023-11-07T14:35:47.614Z,10.70
2023-11-07T14:38:15.277Z,10.60
2023-11-07T14:40:42.117Z,10.50
2023-11-07T14:43:16.071Z,10.30
2023-11-07T14:45:45.342Z,10.10
2023-11-07T14:48:12.600Z,9.90
2023-11-07T14:50:41.073Z,9.70
2023-11-07T14:53:08.541Z,9.70
2023-11-07T14:55:36.219Z,9.70
2023-11-07T14:58:07.036Z,9.80
2023-11-07T15:00:41.222Z,9.80
2023-11-07T15:03:13.342Z,9.80
2023-11-07T15:05:43.192Z,9.80
2023-11-07T15:08:10.807Z,9.80
2023-11-07T15:10:38.141Z,9.80
2023-11-07T15:13:07.161Z,9.70
2023-11-07T15:15:34.791Z,9.60
2023-11-07T15:18:03.504Z,9.60
2023-11-07T15:20:32.427Z,9.60
2023-11-07T15:23:02.578Z,9.50
2023-11-07T15:25:35.069Z,9.50
2023-11-07T15:28:03.006Z,9.50
2023-11-07T15:30:30.087Z,9.50
2023-11-07T15:32:58.724Z,9.40
2023-11-07T15:35:26.875Z,9.40
2023-11-07T15:37:53.720Z,9.30
2023-11-07T15:40:23.378Z,9.20
2023-11-07T15:42:50.575Z,9.10
2023-11-07T15:45:21.885Z,9.10
2023-11-07T15:47:48.957Z,9.00
2023-11-07T15:50:17.397Z,8.80
2023-11-07T15:53:00.216Z,8.80
2023-11-07T15:55:35.592Z,8.70
2023-11-07T15:58:02.858Z,8.60
2023-11-07T16:00:29.932Z,8.50
2023-11-07T16:02:57.041Z,8.50
2023-11-07T16:05:30.257Z,8.50
2023-11-07T16:07:57.292Z,8.50
2023-11-07T16:10:24.945Z,8.50
2023-11-07T16:12:54.997Z,8.60
2023-11-07T16:15:22.714Z,8.60
2023-11-07T16:17:51.957Z,8.60
2023-11-07T16:20:23.045Z,8.60
2023-11-07T16:22:49.949Z,8.50
2023-11-07T16:25:17.793Z,8.50
2023-11-07T16:27:45.193Z,8.50
2023-11-07T16:30:14.567Z,8.60
2023-11-07T16:32:41.992Z,8.60
2023-11-07T16:35:09.417Z,8.60
2023-11-07T16:37:36.442Z,8.60
2023-11-07T16:40:09.614Z,8.60
2023-11-07T16:42:37.052Z,8.60
2023-11-07T16:45:05.762Z,8.60
2023-11-07T16:47:33.648Z,8.60
2023-11-07T16:50:01.692Z,8.70
2023-11-07T16:52:28.562Z,8.70
2023-11-07T16:54:55.489Z,8.80
2023-11-07T16:57:23.430Z,8.80
2023-11-07T16:59:52.092Z,8.80
2023-11-07T17:02:19.848Z,8.80
2023-11-07T17:04:46.970Z,8.80
2023-11-07T17:07:13.998Z,8.80
2023-11-07T17:09:41.611Z,8.80
2023-11-07T17:12:09.057Z,8.80
2023-11-07T17:14:36.684Z,8.70
2023-11-07T17:17:06.810Z,8.70
2023-11-07T17:19:33.819Z,8.70
2023-11-07T17:22:01.117Z,8.70
2023-11-07T17:24:28.870Z,8.60
2023-11-07T17:26:56.387Z,8.70
2023-11-07T17:29:23.809Z,8.80
2023-11-07T17:31:50.963Z,8.70
2023-11-07T17:34:18.071Z,8.70
2023-11-07T17:36:47.643Z,8.70
2023-11-07T17:39:18.416Z,8.70
2023-11-07T17:41:46.134Z,8.70
2023-11-07T17:44:15.360Z,8.70
2023-11-07T17:46:46.211Z,8.70
2023-11-07T17:49:16.011Z,8.60
2023-11-07T17:51:46.562Z,8.60
2023-11-07T17:54:14.159Z,8.60
2023-11-07T17:56:41.128Z,8.60
2023-11-07T17:59:12.630Z,8.60
2023-11-07T18:01:40.447Z,8.60
2023-11-07T18:04:07.701Z,8.60
2023-11-07T18:06:34.916Z,8.60
2023-11-07T18:09:02.249Z,8.60
2023-11-07T18:11:35.069Z,8.60
2023-11-07T18:14:03.595Z,8.70
2023-11-07T18:16:30.464Z,8.70
2023-11-07T18:18:59.453Z,8.60
2023-11-07T18:21:28.204Z,8.60
2023-11-07T18:23:55.560Z,8.60
2023-11-07T18:26:23.254Z,8.50
2023-11-07T18:28:51.325Z,8.50
2023-11-07T18:31:18.788Z,8.50
2023-11-07T18:33:50.097Z,8.50
2023-11-07T18:36:18.657Z,8.50
2023-11-07T18:38:45.762Z,8.50
2023-11-07T18:41:13.040Z,8.50
2023-11-07T18:43:39.945Z,8.50
2023-11-07T18:46:06.896Z,8.40
2023-11-07T18:48:34.668Z,8.40
2023-11-07T18:51:02.194Z,8.50
2023-11-07T18:53:37.340Z,8.50
2023-11-07T18:56:14.062Z,8.40
2023-11-07T18:58:41.267Z,8.40
2023-11-07T19:01:09.583Z,8.40
2023-11-07T19:03:36.946Z,8.40
2023-11-07T19:06:04.475Z,8.40
2023-11-07T19:08:32.586Z,8.40
2023-11-07T19:11:00.956Z,8.40
2023-11-07T19:13:28.324Z,8.40
2023-11-07T19:15:55.817Z,6.70
2023-11-07T19:18:24.164Z,8.40
2023-11-07T19:20:52.430Z,8.40
2023-11-07T19:23:20.524Z,8.40
2023-11-07T19:25:48.413Z,8.40
2023-11-07T19:28:15.763Z,8.40
2023-11-07T19:30:43.673Z,8.40
2023-11-07T19:33:12.865Z,8.30
2023-11-07T19:35:40.776Z,8.30
2023-11-07T19:38:07.859Z,8.30
2023-11-07T19:40:34.916Z,8.30
2023-11-07T19:43:02.126Z,8.40
2023-11-07T19:45:29.144Z,8.40
2023-11-07T19:47:58.212Z,8.40
2023-11-07T19:50:25.207Z,8.40
2023-11-07T19:52:57.843Z,8.40
2023-11-07T19:55:33.040Z,8.40
2023-11-07T19:58:01.311Z,8.40
2023-11-07T20:00:28.343Z,8.30
2023-11-07T20:02:55.507Z,8.30
2023-11-07T20:05:23.776Z,8.30
2023-11-07T20:07:56.228Z,8.30
2023-11-07T20:10:25.814Z,8.30
2023-11-07T20:12:53.182Z,8.30
2023-11-07T20:15:20.195Z,8.30
2023-11-07T20:17:47.175Z,8.30
2023-11-07T20:20:14.673Z,8.40
2023-11-07T20:22:41.952Z,8.30
2023-11-07T20:25:11.243Z,8.30
2023-11-07T20:27:39.965Z,8.30
2023-11-07T20:30:09.120Z,8.30
2023-11-07T20:32:36.118Z,8.20
2023-11-07T20:35:03.579Z,8.20
2023-11-07T20:37:30.567Z,8.20
2023-11-07T20:39:58.030Z,8.20
2023-11-07T20:42:26.547Z,8.20
2023-11-07T20:45:00.849Z,8.20
2023-11-07T20:47:35.781Z,8.20
2023-11-07T20:50:06.108Z,8.20
2023-11-07T20:52:34.115Z,8.20
2023-11-07T20:55:01.621Z,8.20
2023-11-07T20:57:28.593Z,8.30
2023-11-07T20:59:56.182Z,8.30
2023-11-07T21:02:24.223Z,8.40
2023-11-07T21:04:51.243Z,8.40
2023-11-07T21:07:18.119Z,8.60
2023-11-07T21:09:45.332Z,8.40
2023-11-07T21:12:12.254Z,8.40
2023-11-07T21:14:40.309Z,8.50
2023-11-07T21:17:07.131Z,8.40
2023-11-07T21:19:36.947Z,8.40
2023-11-07T21:22:07.207Z,8.40
2023-11-07T21:24:34.265Z,8.30
2023-11-07T21:27:01.195Z,8.30
2023-11-07T21:29:28.055Z,8.30
2023-11-07T21:31:55.818Z,8.40
2023-11-07T21:34:23.449Z,8.40
2023-11-07T21:36:50.551Z,8.40
2023-11-07T21:39:21.208Z,8.50
2023-11-07T21:41:52.019Z,8.50
2023-11-07T21:44:19.153Z,8.50
2023-11-07T21:46:46.206Z,8.50
2023-11-07T21:49:13.403Z,8.50
2023-11-07T21:51:40.515Z,8.50
2023-11-07T21:54:07.639Z,8.50
2023-11-07T21:56:36.016Z,8.50
2023-11-07T21:59:03.425Z,8.50
2023-11-07T22:01:30.595Z,8.50
2023-11-07T22:03:57.481Z,8.50
2023-11-07T22:06:24.388Z,8.50
2023-11-07T22:08:51.270Z,8.60
2023-11-07T22:11:19.282Z,8.60
2023-11-07T22:13:46.139Z,8.60
2023-11-07T22:16:12.984Z,8.60
2023-11-07T22:18:39.855Z,8.60
2023-11-07T22:21:06.831Z,8.60
2023-11-07T22:23:33.904Z,8.60
2023-11-07T22:26:01.066Z,8.60
2023-11-07T22:28:27.858Z,8.70
2023-11-07T22:30:54.711Z,8.60
2023-11-07T22:33:23.234Z,8.60
2023-11-07T22:35:52.978Z,8.60
2023-11-07T22:38:20.473Z,8.60
2023-11-07T22:40:48.283Z,8.60
2023-11-07T22:43:15.456Z,8.60
2023-11-07T22:45:42.671Z,8.50
2023-11-07T22:48:10.442Z,8.50
2023-11-07T22:50:37.550Z,8.40
2023-11-07T22:53:07.004Z,8.40
2023-11-07T22:55:33.842Z,8.40
2023-11-07T22:58:00.715Z,8.40
2023-11-07T23:00:40.370Z,8.30
2023-11-07T23:03:12.062Z,8.30
2023-11-07T23:05:40.801Z,8.30
2023-11-07T23:08:10.198Z,8.30
2023-11-07T23:10:37.934Z,8.30
2023-11-07T23:13:08.532Z,8.30
2023-11-07T23:15:37.693Z,8.30
2023-11-07T23:18:05.928Z,8.40
2023-11-07T23:20:35.018Z,8.40
2023-11-07T23:23:02.322Z,8.50
2023-11-07T23:25:29.375Z,8.50
2023-11-07T23:27:56.309Z,8.50
2023-11-07T23:30:23.290Z,8.50
2023-11-07T23:32:50.311Z,8.50
2023-11-07T23:35:18.534Z,8.40
2023-11-07T23:37:45.493Z,8.30
2023-11-07T23:40:12.906Z,8.30
2023-11-07T23:42:42.543Z,8.40
2023-11-07T23:45:10.634Z,8.40
2023-11-07T23:47:37.876Z,8.40
2023-11-07T23:50:06.511Z,8.40
2023-11-07T23:52:33.911Z,8.40
2023-11-07T23:55:00.737Z,8.30
2023-11-07T23:57:31.312Z,8.30
2023-11-07T23:59:58.168Z,8.30
